Winter Harbor, ME

7:24 AM EST on March 03, 2015 (GMT -0500)
Waterville Lafleur | Change Station
CLOSE
Current Station
Airport
Location: Waterville,
Elevation: 331 ft
Nearby Weather Stations
Active Advisory: Winter Weather Advisory

Elev 331 ft 44.53 °N, 69.68 °W | Updated 9 minutes ago

Clear
Clear
10 °F
Feels Like 4 °F
N
4
Wind Variable Wind from West

Today
High -- | Low -- °F
--% Chance of Precip.
Yesterday
High -- | Low -- °F
Precip. -- in
6:06 AM 5:22 PM
Waxing Gibbous, 96% visible
Pressure 30.29 in
Visibility -9999.0 miles
Clouds Clear
Windchill 4 °F
Dew Point -9 °F
Humidity 41%
Rainfall 0.00 in
Snow Depth Not available.
UV 0 out of 12
Pollen .30 out of 12
Air Quality Not available.
Flu Activity Not available.
METAR KWVL 031215Z 28003KT CLR M12/M23 A3029 RMK AO1

More Conditions Fewer Conditions

Pressure 30.29 in
Visibility -9999.0 miles
Clouds Clear
Windchill 4 °F
Dew Point -9 °F
Humidity 41%
Rainfall 0.00 in
Snow Depth Not available.
UV 0 out of 12
Pollen .30 out of 12
Air Quality Not available.
Flu Activity Not available.
METAR KWVL 031215Z 28003KT CLR M12/M23 A3029 RMK AO1

More Conditions Fewer Conditions

10-Day Weather Forecast

Almanac

Astronomy

Mar. 03, 2015 Rise Set
Actual Time
Civil Twilight
Nautical Twilight
Astronomical Twilight
Moon
Length of Visible Light
Length of Day
Tomorrow will be .
, % of the Moon is Illuminated

Today's Extremes

State Highs State Lows

Community

WunderPhotos

Upload Photos

1,802,095 photos uploaded!

WunderBlogs® & News

Nearby

Air Quality

  Air Quality AQ Index Pollutant
Not available.

Snow Depth

Station Depth Elevation

Earthquake Activity

City Distance Mag. Time & Date
Minimum magnitude displayed is 2.5.

Coastal Water Temperatures

Place Temperature

Nearby Weather Stations

Winter Weather Advisory
Statement as of 5:49 AM EST on March 03, 2015

... Winter Weather Advisory remains in effect from 7 PM this
evening to 1 PM EST Wednesday...

* locations... Penobscot... Hancock and Washington counties.

* Hazard types... snow

* snow accumulations... 4 to 6 inches.

* Timing... overnight into early Tuesday morning.

* Impacts... snow will lead to snow covered roads which could
lead to some travel difficulties.

* Winds... south 10 to 20 mph with gusts up to 35 mph.

* Temperatures... in the upper 20s.

* Visibilities... one half of a mile at times.

Precautionary/preparedness actions...

A Winter Weather Advisory for snow means that periods of snow
will cause primarily travel difficulties. Be prepared for snow
covered roads and limited visibilities... and use caution while
driving.